KRNC/RNC METAR and TAF weather

Enter ICAO airport designator
Station Type Date Time Source
KRNC METAR 2019/04/25 08:35 UTC NOAA

KRNC 250835Z AUTO 00000KT 10SM FEW110 18/12 A2988 RMK A01


Station Type Date Time Source
KRNC Decoded METAR 2019/04/25 08:35 UTC NOAA

Station name not available
Apr 25, 2019 - 04:35 AM EDT / 2019.04.25 0835 UTC
Wind: Calm:0
Visibility: 10 mile(s):0
Sky conditions: mostly clear
Temperature: 64 F (18 C)
Dew Point: 53 F (12 C)
Relative Humidity: 67%
Pressure (altimeter): 29.88 in. Hg (1011 hPa)
ob: KRNC 250835Z AUTO 00000KT 10SM FEW110 18/12 A2988 RMK A01
cycle: 8

Station Type Date Time Source
KRNC TAF 2009/08/31 19:45 UTC NOAA

METAR KRNC 311945Z AUTO 35008KT 10SM CLR 25/12 A3011
RMK AO1 T02500116 $

Example: see airport list